Time;durP1;ratioP1;P1;durP2;ratioP2;P2;SDS_P1;SDS_P2;PMS_P1;PMS_P2;Temp;Humidity;BMP_temperature;BMP_pressure;BME280_temperature;BME280_humidity;BME280_pressure;Samples;Min_cycle;Max_cycle;Signal;HPM_P1;HPM_P2
2023/10/29 00:01:10;;;;;;;4.60;1.20;;;;;;;-145.18;100.00;46640.88;5032274;28;20168;-66
2023/10/29 00:03:35;;;;;;;5.23;1.10;;;;;;;-145.18;100.00;46635.00;5033564;28;20030;-66
2023/10/29 00:06:01;;;;;;;4.57;1.10;;;;;;;-145.18;100.00;46636.94;5033784;28;20037;-66
2023/10/29 00:08:26;;;;;;;3.33;1.13;;;;;;;-145.18;100.00;46640.88;5033651;28;20142;-68
2023/10/29 00:10:52;;;;;;;2.90;0.90;;;;;;;-145.18;100.00;46640.88;5031817;28;20040;-66
2023/10/29 00:13:17;;;;;;;2.20;0.87;;;;;;;-145.18;100.00;46640.88;5033439;28;20136;-66
2023/10/29 00:15:42;;;;;;;1.53;1.10;;;;;;;-145.18;100.00;46642.81;5015469;28;20029;-66
2023/10/29 00:18:12;;;;;;;2.53;0.93;;;;;;;-145.18;100.00;46640.88;5032182;28;20111;-71
2023/10/29 00:20:41;;;;;;;4.20;1.10;;;;;;;-145.18;100.00;46640.88;5029733;28;20040;-71
2023/10/29 00:23:07;;;;;;;2.10;0.87;;;;;;;-145.18;100.00;46646.72;5033461;28;20515;-71
2023/10/29 00:25:32;;;;;;;4.07;1.00;;;;;;;-145.18;100.00;46644.78;5032839;28;20029;-71
2023/10/29 00:27:58;;;;;;;1.83;0.97;;;;;;;-145.18;100.00;46646.72;5033078;28;20421;-71
2023/10/29 00:30:23;;;;;;;3.20;1.00;;;;;;;-145.18;100.00;46650.63;5032955;28;20031;-71
2023/10/29 00:32:48;;;;;;;2.03;0.93;;;;;;;-145.18;100.00;46648.69;5031667;28;20172;-71
2023/10/29 00:35:14;;;;;;;2.13;0.80;;;;;;;-145.18;100.00;46644.78;5033121;28;20029;-71
2023/10/29 00:37:39;;;;;;;1.50;1.03;;;;;;;-145.18;100.00;46648.69;5030962;28;20053;-71
2023/10/29 00:40:05;;;;;;;3.30;0.80;;;;;;;-145.18;100.00;46646.72;5032242;28;20546;-71
2023/10/29 00:42:31;;;;;;;4.20;1.03;;;;;;;-145.18;100.00;46652.59;5032515;28;20030;-71
2023/10/29 00:44:56;;;;;;;3.33;1.10;;;;;;;-145.18;100.00;46646.72;5032698;28;21371;-71
2023/10/29 00:47:22;;;;;;;5.07;1.00;;;;;;;-145.18;100.00;46648.69;5032697;28;20036;-71
2023/10/29 00:49:48;;;;;;;3.50;0.80;;;;;;;-145.18;100.00;46646.72;5031178;28;20078;-71
2023/10/29 00:52:14;;;;;;;1.23;0.70;;;;;;;-145.18;100.00;46650.63;5032408;28;20095;-71
2023/10/29 00:54:39;;;;;;;5.63;0.73;;;;;;;-145.18;100.00;46650.63;5031952;28;20056;-71
2023/10/29 00:57:06;;;;;;;5.67;1.07;;;;;;;-145.18;100.00;46654.53;5033026;28;20033;-71
2023/10/29 00:59:34;;;;;;;2.13;1.00;;;;;;;-145.18;100.00;46654.53;5032083;28;20025;-71
2023/10/29 01:01:59;;;;;;;6.60;1.13;;;;;;;-145.18;100.00;46654.53;5032654;28;20053;-71
2023/10/29 01:04:25;;;;;;;3.70;0.90;;;;;;;-145.18;100.00;46656.50;5029692;28;20052;-71
2023/10/29 01:06:51;;;;;;;3.87;0.90;;;;;;;-145.18;100.00;46658.44;5031660;28;20041;-71
2023/10/29 01:09:17;;;;;;;5.03;0.90;;;;;;;-145.18;100.00;46654.53;5031349;28;20044;-71
2023/10/29 01:11:42;;;;;;;1.90;0.77;;;;;;;-145.18;100.00;46658.44;5030335;28;20029;-71
2023/10/29 01:14:08;;;;;;;3.13;0.97;;;;;;;-145.18;100.00;46666.25;5029875;28;20033;-71
2023/10/29 01:16:33;;;;;;;1.60;0.70;;;;;;;-145.18;100.00;46664.31;5032133;28;20379;-71
2023/10/29 01:18:59;;;;;;;1.80;1.00;;;;;;;-145.18;100.00;46660.41;5032008;28;20129;-71
2023/10/29 01:21:27;;;;;;;2.70;0.80;;;;;;;-145.18;100.00;46666.25;5030750;28;20494;-71
2023/10/29 01:23:52;;;;;;;4.67;0.80;;;;;;;-145.18;100.00;46670.16;5032065;28;20091;-71
2023/10/29 01:26:18;;;;;;;4.47;0.90;;;;;;;-145.18;100.00;46666.25;5032068;28;20041;-67
2023/10/29 01:28:44;;;;;;;3.87;1.30;;;;;;;-145.18;100.00;46664.31;5032388;28;20048;-71
2023/10/29 01:31:10;;;;;;;2.27;0.70;;;;;;;-145.18;100.00;46666.25;5029958;28;20033;-71
2023/10/29 01:33:35;;;;;;;1.93;1.00;;;;;;;-145.18;100.00;46664.31;5032145;28;20028;-71
2023/10/29 01:36:01;;;;;;;3.00;0.80;;;;;;;-145.18;100.00;46670.16;5031343;28;20025;-72
2023/10/29 01:38:27;;;;;;;3.73;1.13;;;;;;;-145.18;100.00;46668.22;5032091;28;20156;-72
2023/10/29 01:40:52;;;;;;;2.83;0.90;;;;;;;-145.18;100.00;46660.41;5031120;28;20049;-71
2023/10/29 01:43:18;;;;;;;3.03;0.80;;;;;;;-145.18;100.00;46668.22;5031873;28;20080;-72
2023/10/29 01:45:43;;;;;;;3.20;1.10;;;;;;;-145.18;100.00;46674.06;5031174;28;20466;-71
2023/10/29 01:48:08;;;;;;;2.00;0.70;;;;;;;-145.18;100.00;46670.16;5030348;28;20039;-72
2023/10/29 01:50:35;;;;;;;2.87;0.63;;;;;;;-145.18;100.00;46679.94;5030300;28;20156;-72
2023/10/29 01:53:01;;;;;;;2.30;0.60;;;;;;;-145.18;100.00;46676.03;5031660;28;20040;-71
2023/10/29 01:55:27;;;;;;;3.13;0.77;;;;;;;-145.18;100.00;46681.88;5032028;28;20025;-71
2023/10/29 01:57:52;;;;;;;1.27;0.70;;;;;;;-145.18;100.00;46683.84;5031685;28;20402;-71
2023/10/29 02:00:19;;;;;;;4.53;0.50;;;;;;;-145.18;100.00;46676.03;5031265;28;20156;-71
2023/10/29 02:02:46;;;;;;;2.93;0.70;;;;;;;-145.18;100.00;46685.78;5031484;28;20040;-71
2023/10/29 02:05:12;;;;;;;1.23;0.60;;;;;;;-145.18;100.00;46677.97;5025484;28;20060;-71
2023/10/29 02:07:37;;;;;;;3.10;0.87;;;;;;;-145.18;100.00;46681.88;5030818;28;20118;-71
2023/10/29 02:10:03;;;;;;;1.43;0.70;;;;;;;-145.18;100.00;46681.88;5030263;28;20026;-71
2023/10/29 02:12:28;;;;;;;2.47;0.60;;;;;;;-145.18;100.00;46697.50;5031584;28;20389;-70
2023/10/29 02:14:54;;;;;;;1.83;0.80;;;;;;;-145.18;100.00;46685.78;5013264;28;20371;-71
2023/10/29 02:17:21;;;;;;;1.67;0.50;;;;;;;-145.18;100.00;46687.75;5031277;28;20033;-70
2023/10/29 02:19:46;;;;;;;0.87;0.60;;;;;;;-145.18;100.00;46679.94;5031513;28;20033;-70
2023/10/29 02:22:12;;;;;;;1.30;0.70;;;;;;;-145.18;100.00;46691.66;5031290;28;20037;-71
2023/10/29 02:24:37;;;;;;;1.80;0.70;;;;;;;-145.18;100.00;46685.78;5030828;28;20766;-71
2023/10/29 02:27:03;;;;;;;1.00;0.50;;;;;;;-145.18;100.00;46683.84;5031461;28;20477;-70
2023/10/29 02:29:29;;;;;;;0.87;0.50;;;;;;;-145.18;100.00;46693.59;5031025;28;20083;-70
2023/10/29 02:31:55;;;;;;;2.10;0.80;;;;;;;-145.18;100.00;46681.88;5030043;28;20041;-70
2023/10/29 02:34:20;;;;;;;1.23;0.60;;;;;;;-145.18;100.00;46689.69;5031059;28;20026;-71
2023/10/29 02:36:45;;;;;;;2.00;0.60;;;;;;;-145.18;100.00;46687.75;5030767;28;20520;-66
2023/10/29 02:39:12;;;;;;;1.00;0.47;;;;;;;-145.18;100.00;46693.59;5030534;28;20037;-66
2023/10/29 02:41:38;;;;;;;1.50;0.40;;;;;;;-145.18;100.00;46687.75;5030758;28;20045;-66
2023/10/29 02:44:03;;;;;;;2.27;1.10;;;;;;;-145.18;100.00;46693.59;5030981;28;20379;-66
2023/10/29 02:46:30;;;;;;;2.57;0.90;;;;;;;-145.18;100.00;46703.38;5030735;28;20037;-66
2023/10/29 02:48:56;;;;;;;2.27;0.50;;;;;;;-145.18;100.00;46707.28;5029855;28;20041;-66
2023/10/29 02:51:21;;;;;;;2.00;0.63;;;;;;;-145.18;100.00;46697.50;5029124;28;20037;-66
2023/10/29 02:53:47;;;;;;;1.17;0.50;;;;;;;-145.18;100.00;46693.59;5030534;28;20045;-66
2023/10/29 02:56:12;;;;;;;1.73;0.50;;;;;;;-145.18;100.00;46695.56;5030517;28;20025;-66
2023/10/29 02:58:37;;;;;;;2.40;0.43;;;;;;;-145.18;100.00;46703.38;5030241;28;20065;-66
2023/10/29 03:01:07;;;;;;;2.27;0.60;;;;;;;-145.18;100.00;46693.59;5030239;28;20037;-67
2023/10/29 03:03:33;;;;;;;1.63;0.60;;;;;;;-145.18;100.00;46697.50;5034424;28;20504;-66
2023/10/29 03:06:05;;;;;;;1.87;0.70;;;;;;;-145.18;100.00;46695.56;5033709;28;20029;-66
2023/10/29 03:08:31;;;;;;;0.77;0.60;;;;;;;-145.18;100.00;46697.50;5032455;28;20171;-66
2023/10/29 03:10:57;;;;;;;3.93;0.73;;;;;;;-145.18;100.00;46703.38;5034000;28;20128;-66
2023/10/29 03:13:22;;;;;;;2.47;0.40;;;;;;;-145.18;100.00;46691.66;5034676;28;20511;-66
2023/10/29 03:15:47;;;;;;;2.17;0.50;;;;;;;-145.18;100.00;46703.38;5034427;28;20513;-66
2023/10/29 03:18:13;;;;;;;1.57;0.50;;;;;;;-145.18;100.00;46691.66;5031460;28;20029;-66
2023/10/29 03:20:39;;;;;;;4.33;0.70;;;;;;;-145.18;100.00;46705.31;5034722;28;20033;-66
2023/10/29 03:23:05;;;;;;;2.17;0.63;;;;;;;-145.18;100.00;46691.66;5034395;28;20489;-66
2023/10/29 03:25:30;;;;;;;1.37;0.60;;;;;;;-145.18;100.00;46703.38;5033843;28;20017;-66
2023/10/29 03:27:56;;;;;;;3.33;0.60;;;;;;;-145.18;100.00;46693.59;5034520;28;20038;-66
2023/10/29 03:30:21;;;;;;;1.77;0.67;;;;;;;-145.18;100.00;46689.69;5034062;28;20110;-67
2023/10/29 03:32:47;;;;;;;2.73;0.70;;;;;;;-145.18;100.00;46691.66;5034523;28;20508;-66
2023/10/29 03:35:12;;;;;;;1.60;0.60;;;;;;;-145.18;100.00;46703.38;5032565;28;20037;-67
2023/10/29 03:37:38;;;;;;;5.13;0.77;;;;;;;-145.18;100.00;46697.50;5033957;28;20037;-66
2023/10/29 03:40:06;;;;;;;1.97;0.60;;;;;;;-145.18;100.00;46699.47;5032530;28;20132;-66
2023/10/29 03:42:32;;;;;;;6.07;0.80;;;;;;;-145.18;100.00;46699.47;5033990;28;20392;-66
2023/10/29 03:44:58;;;;;;;2.73;0.70;;;;;;;-145.18;100.00;46703.38;5033683;28;20116;-66
2023/10/29 03:47:23;;;;;;;1.20;0.50;;;;;;;-145.18;100.00;46685.78;5033767;28;20102;-66
2023/10/29 03:49:49;;;;;;;1.40;0.60;;;;;;;-145.18;100.00;46699.47;5033787;28;20069;-66
2023/10/29 03:52:14;;;;;;;2.43;0.87;;;;;;;-145.18;100.00;46703.38;5033981;28;20120;-67
2023/10/29 03:54:40;;;;;;;1.67;0.63;;;;;;;-145.18;100.00;46697.50;5033790;28;20033;-66
2023/10/29 03:57:05;;;;;;;3.63;0.70;;;;;;;-145.18;100.00;46703.38;5033512;28;20088;-66
2023/10/29 03:59:30;;;;;;;3.43;0.70;;;;;;;-145.18;100.00;46697.50;5033694;28;20393;-67
2023/10/29 04:01:56;;;;;;;4.93;0.73;;;;;;;-145.18;100.00;46705.31;5033574;28;20116;-66
2023/10/29 04:04:21;;;;;;;5.60;0.80;;;;;;;-145.18;100.00;46703.38;5032946;28;20033;-66
2023/10/29 04:06:46;;;;;;;1.80;0.53;;;;;;;-145.18;100.00;46693.59;5033831;28;20100;-66
2023/10/29 04:09:12;;;;;;;1.57;0.53;;;;;;;-145.18;100.00;46701.41;5033764;28;20033;-67
2023/10/29 04:11:37;;;;;;;1.97;0.50;;;;;;;-145.18;100.00;46703.38;5033109;28;20036;-67
2023/10/29 04:14:03;;;;;;;4.77;0.90;;;;;;;-145.18;100.00;46703.38;5032533;28;20047;-67
2023/10/29 04:16:28;;;;;;;6.53;0.70;;;;;;;-145.18;100.00;46703.38;5032393;28;20033;-67
2023/10/29 04:18:54;;;;;;;3.70;0.77;;;;;;;-145.18;100.00;46707.28;5032272;28;20052;-66
2023/10/29 04:21:19;;;;;;;1.90;0.70;;;;;;;-145.18;100.00;46707.28;5033037;28;20029;-67
2023/10/29 04:23:45;;;;;;;3.50;0.70;;;;;;;-145.18;100.00;46707.28;5031454;28;20051;-66
2023/10/29 04:26:10;;;;;;;1.80;0.80;;;;;;;-145.18;100.00;46707.28;5033347;28;20033;-66
2023/10/29 04:28:36;;;;;;;1.90;0.63;;;;;;;-145.18;100.00;46709.22;5033588;28;20417;-66
2023/10/29 04:31:02;;;;;;;2.20;0.60;;;;;;;-145.18;100.00;46711.19;5033054;28;20393;-66
2023/10/29 04:33:27;;;;;;;0.77;0.37;;;;;;;-145.18;100.00;46707.28;5033093;28;20037;-66
2023/10/29 04:35:53;;;;;;;4.23;0.47;;;;;;;-145.18;100.00;46709.22;5031437;28;20034;-66
2023/10/29 04:38:19;;;;;;;2.77;0.40;;;;;;;-145.18;100.00;46707.28;5032591;28;20035;-67
2023/10/29 04:40:45;;;;;;;2.40;0.70;;;;;;;-145.18;100.00;46705.31;5031943;28;20051;-67
2023/10/29 04:43:11;;;;;;;3.17;0.50;;;;;;;-145.18;100.00;46713.13;5032933;28;20099;-66
2023/10/29 04:45:36;;;;;;;1.57;0.50;;;;;;;-145.18;100.00;46701.41;5032473;28;20034;-66
2023/10/29 04:48:02;;;;;;;0.83;0.33;;;;;;;-145.18;100.00;46707.28;5029427;28;20557;-66
2023/10/29 04:50:30;;;;;;;3.77;0.53;;;;;;;-145.18;100.00;46707.28;5031939;28;20493;-67
2023/10/29 04:52:56;;;;;;;2.03;0.50;;;;;;;-145.18;100.00;46705.31;5032326;28;20473;-67
2023/10/29 04:55:21;;;;;;;1.60;0.40;;;;;;;-145.18;100.00;46705.31;5030287;28;20040;-67
2023/10/29 04:57:47;;;;;;;4.20;0.43;;;;;;;-145.18;100.00;46705.31;5032798;28;20069;-67
2023/10/29 05:00:13;;;;;;;3.27;0.53;;;;;;;-145.18;100.00;46701.41;5029491;28;20116;-67
2023/10/29 05:02:38;;;;;;;2.90;0.50;;;;;;;-145.18;100.00;46695.56;5032135;28;20120;-67
2023/10/29 05:05:06;;;;;;;5.30;0.57;;;;;;;-145.18;100.00;46689.69;5032110;28;20108;-67
2023/10/29 05:07:32;;;;;;;1.17;0.77;;;;;;;-145.18;100.00;46687.75;5024412;28;20115;-67
2023/10/29 05:09:57;;;;;;;3.47;0.67;;;;;;;-145.18;100.00;46687.75;5030878;28;20378;-67
2023/10/29 05:12:23;;;;;;;4.30;0.70;;;;;;;-145.18;100.00;46683.84;5032352;28;20037;-67
2023/10/29 05:14:51;;;;;;;4.03;0.60;;;;;;;-145.18;100.00;46681.88;5032344;28;20071;-67
2023/10/29 05:17:16;;;;;;;3.47;0.70;;;;;;;-145.18;100.00;46689.69;5034121;28;20040;-67
2023/10/29 05:19:43;;;;;;;4.10;0.97;;;;;;;-145.18;100.00;46681.88;5032345;28;20029;-67
2023/10/29 05:22:08;;;;;;;5.07;0.80;;;;;;;-145.18;100.00;46677.97;5031659;28;20122;-67
2023/10/29 05:24:34;;;;;;;1.63;0.60;;;;;;;-145.18;100.00;46685.78;5031056;28;20170;-66
2023/10/29 05:26:59;;;;;;;5.07;0.60;;;;;;;-145.18;100.00;46685.78;5030826;28;20099;-67
2023/10/29 05:29:26;;;;;;;3.93;0.60;;;;;;;-145.18;100.00;46683.84;5032433;28;20044;-67
2023/10/29 05:31:51;;;;;;;3.10;0.80;;;;;;;-145.18;100.00;46681.88;5015821;28;20083;-67
2023/10/29 05:34:17;;;;;;;4.07;0.70;;;;;;;-145.18;100.00;46677.97;5030469;28;20045;-66
2023/10/29 05:36:42;;;;;;;3.03;0.77;;;;;;;-145.18;100.00;46679.94;5030632;28;20786;-67
2023/10/29 05:39:08;;;;;;;4.30;0.83;;;;;;;-145.18;100.00;46683.84;5032955;28;20063;-67
2023/10/29 05:41:33;;;;;;;4.37;0.57;;;;;;;-145.18;100.00;46689.69;5032135;28;20128;-67
2023/10/29 05:43:59;;;;;;;5.80;0.77;;;;;;;-145.18;100.00;46699.47;5031755;28;20120;-67
2023/10/29 05:46:24;;;;;;;2.00;0.70;;;;;;;-145.18;100.00;46691.66;5035066;28;20033;-66
2023/10/29 05:48:50;;;;;;;7.20;0.87;;;;;;;-145.18;100.00;46687.75;5030795;28;20045;-67
2023/10/29 05:51:19;;;;;;;3.27;0.73;;;;;;;-145.18;100.00;46701.41;5031502;28;20033;-67
2023/10/29 05:53:45;;;;;;;2.90;0.60;;;;;;;-145.18;100.00;46695.56;5032540;28;20033;-67
2023/10/29 05:56:10;;;;;;;6.77;1.00;;;;;;;-145.18;100.00;46707.28;5033876;28;20092;-66
2023/10/29 05:58:35;;;;;;;1.90;0.73;;;;;;;-145.18;100.00;46707.28;5031508;28;20072;-67
2023/10/29 06:01:01;;;;;;;7.50;0.77;;;;;;;-145.18;100.00;46703.38;5031400;28;20083;-67
2023/10/29 06:03:27;;;;;;;5.43;0.70;;;;;;;-145.18;100.00;46705.31;5030447;28;20117;-67
2023/10/29 06:05:53;;;;;;;9.00;1.33;;;;;;;-145.18;100.00;46709.22;5033354;28;20057;-67
2023/10/29 06:08:18;;;;;;;1.80;0.50;;;;;;;-145.18;100.00;46711.19;5028593;28;20379;-67
2023/10/29 06:10:43;;;;;;;2.43;0.60;;;;;;;-145.18;100.00;46707.28;5030675;28;20155;-66
2023/10/29 06:13:09;;;;;;;8.80;0.80;;;;;;;-145.18;100.00;46705.31;5033314;28;20076;-66
2023/10/29 06:15:34;;;;;;;5.43;0.80;;;;;;;-145.18;100.00;46705.31;5031156;28;20044;-67
2023/10/29 06:18:00;;;;;;;3.53;0.60;;;;;;;-145.18;100.00;46713.13;5027789;28;20482;-66
2023/10/29 06:20:27;;;;;;;4.53;0.87;;;;;;;-145.18;100.00;46707.28;5033712;28;20079;-66
2023/10/29 06:22:52;;;;;;;3.43;0.60;;;;;;;-145.18;100.00;46711.19;5030837;28;20036;-67
2023/10/29 06:25:18;;;;;;;5.33;1.07;;;;;;;-145.18;100.00;46709.22;5029788;28;20022;-66
2023/10/29 06:27:43;;;;;;;3.73;0.63;;;;;;;-145.18;100.00;46711.19;5028492;28;20060;-67
2023/10/29 06:30:13;;;;;;;5.83;0.90;;;;;;;-145.18;100.00;46711.19;5030173;28;20064;-66
2023/10/29 06:32:39;;;;;;;2.40;0.47;;;;;;;-145.18;100.00;46711.19;5029506;28;20482;-66
2023/10/29 06:35:05;;;;;;;10.13;0.97;;;;;;;-145.18;100.00;46707.28;5028164;28;20036;-66
2023/10/29 06:37:31;;;;;;;4.57;1.27;;;;;;;-145.18;100.00;46703.38;5029313;28;20117;-66
2023/10/29 06:39:56;;;;;;;5.73;0.60;;;;;;;-145.18;100.00;46697.50;5029891;28;20132;-66
2023/10/29 06:42:22;;;;;;;4.03;0.80;;;;;;;-145.18;100.00;46697.50;5031198;28;20316;-66
2023/10/29 06:44:47;;;;;;;4.67;0.70;;;;;;;-145.18;100.00;46701.41;5029130;28;20595;-66
2023/10/29 06:47:14;;;;;;;3.83;0.73;;;;;;;-145.18;100.00;46703.38;5027044;28;20164;-66
2023/10/29 06:49:40;;;;;;;5.20;0.67;;;;;;;-145.18;100.00;46687.75;5029827;28;20092;-66
2023/10/29 06:52:06;;;;;;;3.83;0.63;;;;;;;-145.18;100.00;46697.50;5024010;28;20046;-66
2023/10/29 06:54:31;;;;;;;10.53;0.80;;;;;;;-145.18;100.00;46689.69;5029767;28;20477;-65
2023/10/29 06:56:57;;;;;;;6.67;1.03;;;;;;;-145.18;100.00;46701.41;5025779;28;20076;-66
2023/10/29 06:59:22;;;;;;;5.67;1.00;;;;;;;-145.18;100.00;46701.41;5021825;28;20037;-66
2023/10/29 07:01:49;;;;;;;4.90;0.80;;;;;;;-145.18;100.00;46693.59;5023550;28;20049;-65
2023/10/29 07:04:15;;;;;;;3.53;0.80;;;;;;;-145.18;100.00;46691.66;5022407;28;20048;-65
2023/10/29 07:06:40;;;;;;;4.67;0.80;;;;;;;-145.18;100.00;46695.56;5023831;28;20049;-66
2023/10/29 07:09:05;;;;;;;1.97;0.80;;;;;;;-145.18;100.00;46693.59;5033532;28;20510;-66
2023/10/29 07:11:31;;;;;;;2.97;0.73;;;;;;;-145.18;100.00;46693.59;5034412;28;20052;-66
2023/10/29 07:13:56;;;;;;;7.00;1.27;;;;;;;-145.18;100.00;46689.69;5035660;28;20561;-66
2023/10/29 07:16:21;;;;;;;4.67;1.17;;;;;;;-145.18;100.00;46687.75;5036375;28;20029;-71
2023/10/29 07:18:47;;;;;;;4.70;0.90;;;;;;;-145.18;100.00;46685.78;5036881;28;20043;-71
2023/10/29 07:21:14;;;;;;;4.70;0.60;;;;;;;-145.18;100.00;46681.88;5038321;28;20410;-72
2023/10/29 07:23:40;;;;;;;4.67;0.80;;;;;;;-145.18;100.00;46691.66;5036014;28;21195;-72
2023/10/29 07:26:05;;;;;;;3.77;0.90;;;;;;;-145.18;100.00;46677.97;5037470;28;20025;-71
2023/10/29 07:28:31;;;;;;;6.70;1.07;;;;;;;-145.18;100.00;46687.75;5035242;28;20052;-71
2023/10/29 07:30:56;;;;;;;6.47;1.00;;;;;;;-145.18;100.00;46683.84;5032734;28;20037;-71
2023/10/29 07:33:21;;;;;;;4.40;0.83;;;;;;;-145.18;100.00;46689.69;5037445;28;20531;-71
2023/10/29 07:35:47;;;;;;;7.03;1.10;;;;;;;-145.18;100.00;46689.69;5031987;28;20044;-71
2023/10/29 07:38:12;;;;;;;5.40;0.90;;;;;;;-145.18;100.00;46695.56;5035323;28;20041;-71
2023/10/29 07:40:38;;;;;;;5.10;0.70;;;;;;;-145.18;100.00;46693.59;5035877;28;20087;-72
2023/10/29 07:43:04;;;;;;;7.07;1.03;;;;;;;-145.18;100.00;46701.41;5035560;28;20482;-71
2023/10/29 07:45:30;;;;;;;5.80;1.10;;;;;;;-145.18;100.00;46699.47;5035901;28;20025;-71
2023/10/29 07:47:55;;;;;;;9.53;1.63;;;;;;;-145.18;100.00;46699.47;5036108;28;20037;-72
2023/10/29 07:50:21;;;;;;;9.53;1.17;;;;;;;-145.18;100.00;46699.47;5038711;28;20523;-72
2023/10/29 07:52:47;;;;;;;11.57;1.20;;;;;;;-145.18;100.00;46699.47;5038812;28;20041;-72
2023/10/29 07:55:13;;;;;;;7.37;1.67;;;;;;;-145.18;100.00;46705.31;5040425;28;20469;-72
2023/10/29 07:57:38;;;;;;;7.93;0.80;;;;;;;-145.18;100.00;46703.38;5038750;28;20090;-71
2023/10/29 08:00:13;;;;;;;6.63;1.03;;;;;;;-145.18;100.00;46703.38;5038173;28;20361;-71
2023/10/29 08:02:39;;;;;;;6.90;1.10;;;;;;;-145.18;100.00;46703.38;5039765;28;20038;-71
2023/10/29 08:05:06;;;;;;;11.13;1.30;;;;;;;-145.18;100.00;46703.38;5038111;28;20040;-72
2023/10/29 08:07:31;;;;;;;4.80;1.00;;;;;;;-145.18;100.00;46707.28;5039500;28;20075;-71
2023/10/29 08:09:56;;;;;;;7.07;0.90;;;;;;;-145.18;100.00;46701.41;5038174;28;20084;-71
2023/10/29 08:12:26;;;;;;;5.23;1.90;;;;;;;-145.18;100.00;46705.31;5021298;28;20498;-72
2023/10/29 08:14:52;;;;;;;5.00;1.20;;;;;;;-145.18;100.00;46701.41;5038574;28;20037;-72
2023/10/29 08:17:17;;;;;;;9.13;0.97;;;;;;;-145.18;100.00;46699.47;5039327;28;20034;-72
2023/10/29 08:19:44;;;;;;;5.27;1.23;;;;;;;-145.18;100.00;46701.41;5041055;28;20488;-72
2023/10/29 08:22:09;;;;;;;7.33;0.90;;;;;;;-145.18;100.00;46705.31;5040061;28;20041;-72
2023/10/29 08:24:35;;;;;;;9.67;1.03;;;;;;;-145.18;100.00;46701.41;5034451;28;20052;-72
2023/10/29 08:27:00;;;;;;;12.97;1.20;;;;;;;-145.18;100.00;46701.41;5037961;28;20508;-66
2023/10/29 08:29:26;;;;;;;13.43;2.10;;;;;;;-145.18;100.00;46701.41;5039024;28;20056;-67
2023/10/29 08:31:51;;;;;;;6.73;1.73;;;;;;;-145.18;100.00;46701.41;5040645;28;20099;-67
2023/10/29 08:34:16;;;;;;;6.70;1.47;;;;;;;-145.18;100.00;46699.47;5038067;28;20147;-67
2023/10/29 08:36:42;;;;;;;7.60;1.37;;;;;;;-145.18;100.00;46701.41;5038273;28;20086;-66
2023/10/29 08:39:09;;;;;;;8.57;1.17;;;;;;;-145.18;100.00;46701.41;5037362;28;20472;-66
2023/10/29 08:41:34;;;;;;;6.63;1.30;;;;;;;-145.18;100.00;46701.41;5039812;28;20429;-66
2023/10/29 08:44:00;;;;;;;9.97;1.50;;;;;;;-145.18;100.00;46699.47;5040250;28;20068;-67
2023/10/29 08:46:25;;;;;;;8.77;1.50;;;;;;;-145.18;100.00;46699.47;5031850;28;20038;-66
2023/10/29 08:48:51;;;;;;;5.97;1.30;;;;;;;-145.18;100.00;46703.38;5037464;28;20037;-67
2023/10/29 08:51:16;;;;;;;12.43;1.73;;;;;;;-145.18;100.00;46703.38;5032433;28;20032;-66
2023/10/29 08:53:42;;;;;;;3.93;1.17;;;;;;;-145.18;100.00;46697.50;5033106;28;20033;-67
2023/10/29 08:56:08;;;;;;;11.80;1.50;;;;;;;-145.18;100.00;46697.50;5036828;28;20036;-67
2023/10/29 08:58:33;;;;;;;6.67;1.13;;;;;;;-145.18;100.00;46701.41;5034268;28;20405;-67
2023/10/29 09:00:59;;;;;;;5.83;1.00;;;;;;;-145.18;100.00;46703.38;5030870;28;20037;-66
2023/10/29 09:03:25;;;;;;;14.43;1.37;;;;;;;-145.18;100.00;46705.31;5029915;28;20037;-67
2023/10/29 09:05:50;;;;;;;10.13;1.67;;;;;;;-145.18;100.00;46705.31;5031836;28;20038;-67
2023/10/29 09:08:16;;;;;;;7.97;1.10;;;;;;;-145.18;100.00;46705.31;5031878;28;20044;-67
2023/10/29 09:10:43;;;;;;;4.13;1.00;;;;;;;-145.18;100.00;46705.31;5029897;28;20033;-67
2023/10/29 09:13:09;;;;;;;15.43;1.40;;;;;;;-145.18;100.00;46715.09;5030259;28;20084;-67
2023/10/29 09:15:34;;;;;;;8.50;1.23;;;;;;;-145.18;100.00;46709.22;5028270;28;20123;-67
2023/10/29 09:18:00;;;;;;;8.33;1.00;;;;;;;-145.18;100.00;46711.19;5030753;28;20497;-67
2023/10/29 09:20:25;;;;;;;5.63;1.00;;;;;;;-145.18;100.00;46707.28;5032062;28;20056;-67
2023/10/29 09:22:50;;;;;;;13.53;2.20;;;;;;;-145.18;100.00;46707.28;5033948;28;20409;-67
2023/10/29 09:25:16;;;;;;;6.93;1.33;;;;;;;-145.18;100.00;46707.28;5031912;28;20056;-66
2023/10/29 09:27:41;;;;;;;8.10;1.40;;;;;;;-145.18;100.00;46705.31;5031477;28;20041;-67
2023/10/29 09:30:08;;;;;;;8.77;1.10;;;;;;;-145.18;100.00;46709.22;5031689;28;20045;-67
2023/10/29 09:32:36;;;;;;;7.70;1.00;;;;;;;-145.18;100.00;46707.28;5031806;28;20067;-67
2023/10/29 09:35:04;;;;;;;9.40;1.27;;;;;;;-145.18;100.00;46703.38;5030217;28;20093;-67
2023/10/29 09:37:32;;;;;;;9.27;1.30;;;;;;;-145.18;100.00;46707.28;5033233;28;20056;-67
2023/10/29 09:39:58;;;;;;;11.47;1.80;;;;;;;-145.18;100.00;46701.41;5031575;28;20065;-67
2023/10/29 09:42:32;;;;;;;8.07;1.23;;;;;;;-145.18;100.00;46687.75;5030980;28;20044;-66
2023/10/29 09:44:58;;;;;;;6.40;1.30;;;;;;;-145.18;100.00;46676.03;5031150;28;20033;-66
2023/10/29 09:47:26;;;;;;;6.33;1.60;;;;;;;-145.18;100.00;46652.59;5031072;28;20037;-67
2023/10/29 09:49:54;;;;;;;6.57;1.20;;;;;;;-145.18;100.00;46676.03;5031955;28;20048;-67
2023/10/29 09:52:23;;;;;;;4.10;0.70;;;;;;;-145.18;100.00;46674.06;5031364;28;20394;-67
2023/10/29 09:54:51;;;;;;;6.57;0.97;;;;;;;-145.18;100.00;46625.22;5029874;28;20056;-67
2023/10/29 09:57:17;;;;;;;7.53;0.90;;;;;;;-145.18;100.00;46593.97;5031511;28;20041;-67
2023/10/29 09:59:42;;;;;;;8.47;1.30;;;;;;;-145.18;100.00;46576.41;5014293;28;20060;-67
2023/10/29 10:02:08;;;;;;;6.73;1.40;;;;;;;-145.18;100.00;46578.34;5030477;28;20029;-67
2023/10/29 10:04:36;;;;;;;9.50;1.60;;;;;;;-145.18;100.00;46592.03;5030058;28;20124;-67
2023/10/29 10:07:04;;;;;;;7.07;1.70;;;;;;;-145.18;100.00;46586.16;5031563;28;20486;-67
2023/10/29 10:09:53;;;;;;;12.23;1.33;;;;;;;-145.18;100.00;46588.13;5029340;28;20037;-67
2023/10/29 10:12:18;;;;;;;9.93;1.77;;;;;;;-145.18;100.00;46580.31;5031024;28;20049;-67
2023/10/29 10:14:43;;;;;;;8.57;1.60;;;;;;;-145.18;100.00;46582.25;5038706;28;20413;-67
2023/10/29 10:17:10;;;;;;;7.20;1.43;;;;;;;-145.18;100.00;46588.13;5031320;28;20025;-67
2023/10/29 10:19:37;;;;;;;7.40;1.10;;;;;;;-145.18;100.00;46586.16;5031527;28;20037;-67
2023/10/29 10:22:05;;;;;;;11.23;1.33;;;;;;;-145.18;100.00;46582.25;5031047;28;20029;-67
2023/10/29 10:24:43;;;;;;;11.83;1.57;;;;;;;-145.18;100.00;46603.75;5030602;28;20095;-67
2023/10/29 10:27:09;;;;;;;8.57;1.47;;;;;;;-145.18;100.00;46609.59;5029472;28;20088;-67
2023/10/29 10:29:35;;;;;;;7.07;1.97;;;;;;;-145.18;100.00;46619.38;5029053;28;20116;-67
2023/10/29 10:32:05;;;;;;;8.60;1.17;;;;;;;-145.18;100.00;46601.78;5029432;28;20037;-67
2023/10/29 10:34:33;;;;;;;10.80;1.57;;;;;;;-145.18;100.00;46613.50;5030629;28;20025;-68
2023/10/29 10:37:00;;;;;;;11.83;2.00;;;;;;;-145.18;100.00;46603.75;5030446;28;20033;-67
2023/10/29 10:39:33;;;;;;;6.73;1.23;;;;;;;-145.18;100.00;46590.06;5032296;28;20063;-67
2023/10/29 10:42:00;;;;;;;12.43;1.27;;;;;;;-145.18;100.00;46593.97;5030427;28;20053;-67
2023/10/29 10:44:29;;;;;;;9.20;1.23;;;;;;;-145.18;100.00;46595.94;5030809;28;20029;-67
2023/10/29 10:46:58;;;;;;;11.60;1.60;;;;;;;-145.18;100.00;46593.97;5028217;28;20044;-72
2023/10/29 10:49:24;;;;;;;14.77;1.23;;;;;;;-145.18;100.00;46603.75;5031048;28;20031;-72
2023/10/29 10:51:54;;;;;;;8.17;1.70;;;;;;;-145.18;100.00;46638.91;5028890;28;20448;-72
2023/10/29 10:54:21;;;;;;;5.13;1.13;;;;;;;-145.18;100.00;46650.63;5030311;28;20033;-72
2023/10/29 10:56:48;;;;;;;8.50;1.00;;;;;;;-145.18;100.00;46681.88;5030994;28;20037;-72
2023/10/29 10:59:13;;;;;;;6.80;1.37;;;;;;;-145.18;100.00;46683.84;5028411;28;20567;-73
2023/10/29 11:01:39;;;;;;;10.47;3.20;;;;;;;-145.18;100.00;46679.94;5030525;28;20029;-72
2023/10/29 11:04:08;;;;;;;7.63;1.23;;;;;;;-145.18;100.00;46676.03;5029339;28;20074;-72